Time,TemperatureF,DewpointF,PressureIn,WindDirection,WindDirectionDegrees,WindSpeedMPH,WindSpeedGustMPH,Humidity,HourlyPrecipIn,Conditions,Clouds,dailyrainin,SoftwareType,DateUTC
2013-01-18 00:04:00,9.7,-99.9,25.45,North,-999,0.0,0.0,-999,0.00,,,-99.99,FreeWX 2.04,2013-01-18 07:04:00,
2013-01-18 00:09:00,10.4,-99.9,25.45,North,-999,0.0,0.0,-999,0.00,,,-99.99,FreeWX 2.04,2013-01-18 07:09:00,
2013-01-18 00:14:00,10.0,-99.9,25.45,North,-999,0.0,0.0,-999,0.00,,,-99.99,FreeWX 2.04,2013-01-18 07:14:00,
2013-01-18 00:19:00,9.5,-99.9,25.42,North,-999,0.0,0.0,-999,0.00,,,-99.99,FreeWX 2.04,2013-01-18 07:19:00,
2013-01-18 00:24:00,8.6,-99.9,25.42,North,-999,0.0,0.0,-999,0.00,,,-99.99,FreeWX 2.04,2013-01-18 07:24:00,
2013-01-18 00:29:00,8.6,-99.9,25.42,North,-999,0.0,0.0,-999,0.00,,,-99.99,FreeWX 2.04,2013-01-18 07:29:00,
2013-01-18 00:34:00,8.4,-99.9,25.45,North,-999,0.0,0.0,-999,0.00,,,-99.99,FreeWX 2.04,2013-01-18 07:34:00,
2013-01-18 00:39:00,9.1,-99.9,25.45,North,-999,0.0,0.0,-999,0.00,,,-99.99,FreeWX 2.04,2013-01-18 07:39:00,
2013-01-18 00:44:00,8.6,-99.9,25.45,North,-999,0.0,0.0,-999,0.00,,,-99.99,FreeWX 2.04,2013-01-18 07:44:00,
2013-01-18 00:49:00,9.1,-99.9,25.45,North,-999,0.0,0.0,-999,0.00,,,-99.99,FreeWX 2.04,2013-01-18 07:49:00,
2013-01-18 00:54:00,8.1,-99.9,25.45,North,-999,0.0,0.0,-999,0.00,,,-99.99,FreeWX 2.04,2013-01-18 07:54:00,
2013-01-18 00:59:00,7.9,-99.9,25.45,North,-999,0.0,0.0,-999,0.00,,,-99.99,FreeWX 2.04,2013-01-18 07:59:00,
2013-01-18 01:04:00,8.8,-99.9,25.42,West,272,1.0,3.6,-999,0.00,,,-99.99,FreeWX 2.04,2013-01-18 08:04:00,
2013-01-18 01:09:00,8.4,-99.9,25.42,West,274,1.0,3.1,-999,0.00,,,-99.99,FreeWX 2.04,2013-01-18 08:09:00,
2013-01-18 01:15:00,7.9,-99.9,25.42,North,-999,0.0,2.7,-999,0.00,,,-99.99,FreeWX 2.04,2013-01-18 08:15:00,
2013-01-18 01:20:00,7.5,-99.9,25.42,North,-999,0.0,0.0,-999,0.00,,,-99.99,FreeWX 2.04,2013-01-18 08:20:00,
2013-01-18 01:25:00,7.5,-99.9,25.42,North,-999,0.0,0.0,-999,0.00,,,-99.99,FreeWX 2.04,2013-01-18 08:25:00,
2013-01-18 01:30:00,7.9,-99.9,25.42,North,-999,0.0,0.0,-999,0.00,,,-99.99,FreeWX 2.04,2013-01-18 08:30:00,
2013-01-18 01:35:00,8.1,-99.9,25.42,North,-999,0.0,0.0,-999,0.00,,,-99.99,FreeWX 2.04,2013-01-18 08:35:00,
2013-01-18 01:40:00,7.5,-99.9,25.42,North,-999,0.0,0.0,-999,0.00,,,-99.99,FreeWX 2.04,2013-01-18 08:40:00,
2013-01-18 01:45:00,6.1,-99.9,25.42,North,-999,0.0,0.0,-999,0.00,,,-99.99,FreeWX 2.04,2013-01-18 08:45:00,
2013-01-18 01:50:00,6.3,-99.9,25.45,North,-999,0.0,0.0,-999,0.00,,,-99.99,FreeWX 2.04,2013-01-18 08:50:00,
2013-01-18 01:55:00,6.1,-99.9,25.45,North,-999,0.0,0.0,-999,0.00,,,-99.99,FreeWX 2.04,2013-01-18 08:55:00,
2013-01-18 02:00:00,6.4,-99.9,25.45,North,-999,0.0,0.0,-999,0.00,,,-99.99,FreeWX 2.04,2013-01-18 09:00:00,
2013-01-18 02:05:00,7.3,-99.9,25.45,North,-999,0.0,0.0,-999,0.00,,,-99.99,FreeWX 2.04,2013-01-18 09:05:00,
2013-01-18 02:10:00,7.5,-99.9,25.45,North,-999,0.0,0.0,-999,0.00,,,-99.99,FreeWX 2.04,2013-01-18 09:10:00,
2013-01-18 02:15:00,7.5,-99.9,25.45,North,-999,0.0,0.0,-999,0.00,,,-99.99,FreeWX 2.04,2013-01-18 09:15:00,
2013-01-18 02:20:00,6.6,-99.9,25.45,North,-999,0.0,0.0,-999,0.00,,,-99.99,FreeWX 2.04,2013-01-18 09:20:00,
2013-01-18 02:25:00,7.0,-99.9,25.45,North,-999,0.0,0.0,-999,0.00,,,-99.99,FreeWX 2.04,2013-01-18 09:25:00,
2013-01-18 02:30:00,6.6,-99.9,25.45,North,-999,0.0,0.0,-999,0.00,,,-99.99,FreeWX 2.04,2013-01-18 09:30:00,
2013-01-18 02:40:00,5.7,-99.9,25.45,North,-999,0.0,0.0,-999,0.00,,,-99.99,FreeWX 2.04,2013-01-18 09:40:00,
2013-01-18 02:45:00,5.4,-99.9,25.45,North,-999,0.0,0.0,-999,0.00,,,-99.99,FreeWX 2.04,2013-01-18 09:45:00,
2013-01-18 02:50:00,6.3,-99.9,25.45,North,-999,0.0,0.0,-999,0.00,,,-99.99,FreeWX 2.04,2013-01-18 09:50:00,
2013-01-18 02:55:00,6.8,-99.9,25.45,North,-999,0.0,0.0,-999,0.00,,,-99.99,FreeWX 2.04,2013-01-18 09:55:00,
2013-01-18 03:00:00,7.0,-99.9,25.42,North,-999,0.0,0.0,-999,0.00,,,-99.99,FreeWX 2.04,2013-01-18 10:00:00,
2013-01-18 03:05:00,7.5,-99.9,25.42,North,-999,0.0,0.0,-999,0.00,,,-99.99,FreeWX 2.04,2013-01-18 10:05:00,
2013-01-18 03:10:00,6.4,-99.9,25.42,North,-999,0.0,0.0,-999,0.00,,,-99.99,FreeWX 2.04,2013-01-18 10:10:00,
2013-01-18 03:15:00,6.1,-99.9,25.45,North,-999,0.0,0.0,-999,0.00,,,-99.99,FreeWX 2.04,2013-01-18 10:15:00,
2013-01-18 03:20:00,6.1,-99.9,25.45,North,-999,0.0,0.0,-999,0.00,,,-99.99,FreeWX 2.04,2013-01-18 10:20:00,
2013-01-18 03:25:00,5.9,-99.9,25.45,North,-999,0.0,2.7,-999,0.00,,,-99.99,FreeWX 2.04,2013-01-18 10:25:00,
2013-01-18 03:30:00,5.5,-99.9,25.42,North,-999,0.0,0.0,-999,0.00,,,-99.99,FreeWX 2.04,2013-01-18 10:30:00,
2013-01-18 03:35:00,7.2,-99.9,25.42,North,-999,0.0,3.1,-999,0.00,,,-99.99,FreeWX 2.04,2013-01-18 10:35:00,
2013-01-18 03:40:00,7.0,-99.9,25.42,West,274,1.0,3.1,-999,0.00,,,-99.99,FreeWX 2.04,2013-01-18 10:40:00,
2013-01-18 03:45:00,7.9,-99.9,25.42,West,274,1.0,3.1,-999,0.00,,,-99.99,FreeWX 2.04,2013-01-18 10:45:00,
2013-01-18 03:50:00,7.5,-99.9,25.42,North,-999,0.0,0.0,-999,0.00,,,-99.99,FreeWX 2.04,2013-01-18 10:50:00,
2013-01-18 03:55:00,7.9,-99.9,25.42,North,-999,0.0,0.0,-999,0.00,,,-99.99,FreeWX 2.04,2013-01-18 10:55:00,
2013-01-18 04:00:00,7.3,-99.9,25.42,North,-999,0.0,2.7,-999,0.00,,,-99.99,FreeWX 2.04,2013-01-18 11:00:00,
2013-01-18 04:05:00,6.8,-99.9,25.42,North,-999,0.0,0.0,-999,0.00,,,-99.99,FreeWX 2.04,2013-01-18 11:05:00,
2013-01-18 04:10:00,5.9,-99.9,25.42,North,-999,0.0,2.7,-999,0.00,,,-99.99,FreeWX 2.04,2013-01-18 11:10:00,
2013-01-18 04:15:00,4.3,-99.9,25.42,North,-999,0.0,2.7,-999,0.00,,,-99.99,FreeWX 2.04,2013-01-18 11:15:00,
2013-01-18 04:20:00,4.5,-99.9,25.42,North,-999,0.0,0.0,-999,0.00,,,-99.99,FreeWX 2.04,2013-01-18 11:20:00,
2013-01-18 04:25:00,5.0,-99.9,25.42,North,-999,0.0,0.0,-999,0.00,,,-99.99,FreeWX 2.04,2013-01-18 11:25:00,
2013-01-18 04:30:00,5.0,-99.9,25.42,North,-999,0.0,0.0,-999,0.00,,,-99.99,FreeWX 2.04,2013-01-18 11:30:00,
2013-01-18 04:35:00,5.4,-99.9,25.42,North,-999,0.0,0.0,-999,0.00,,,-99.99,FreeWX 2.04,2013-01-18 11:35:00,
2013-01-18 04:40:00,5.5,-99.9,25.42,North,-999,0.0,0.0,-999,0.00,,,-99.99,FreeWX 2.04,2013-01-18 11:40:00,
2013-01-18 04:45:00,5.4,-99.9,25.42,North,-999,0.0,0.0,-999,0.00,,,-99.99,FreeWX 2.04,2013-01-18 11:45:00,
2013-01-18 04:50:00,5.4,-99.9,25.42,North,-999,0.0,0.0,-999,0.00,,,-99.99,FreeWX 2.04,2013-01-18 11:50:00,
2013-01-18 04:55:00,5.0,-99.9,25.42,North,-999,0.0,0.0,-999,0.00,,,-99.99,FreeWX 2.04,2013-01-18 11:55:00,
2013-01-18 05:00:00,5.0,-99.9,25.42,North,-999,0.0,2.7,-999,0.00,,,-99.99,FreeWX 2.04,2013-01-18 12:00:00,
2013-01-18 05:05:00,5.0,-99.9,25.42,North,-999,0.0,3.1,-999,0.00,,,-99.99,FreeWX 2.04,2013-01-18 12:05:00,
2013-01-18 05:10:00,5.0,-99.9,25.42,North,-999,0.0,0.0,-999,0.00,,,-99.99,FreeWX 2.04,2013-01-18 12:10:00,
2013-01-18 05:15:00,5.5,-99.9,25.39,North,-999,0.0,0.0,-999,0.00,,,-99.99,FreeWX 2.04,2013-01-18 12:15:00,
2013-01-18 05:20:00,7.0,-99.9,25.39,West,270,1.0,6.9,-999,0.00,,,-99.99,FreeWX 2.04,2013-01-18 12:20:00,
2013-01-18 05:25:00,7.7,-99.9,25.39,West,272,2.0,4.9,-999,0.00,,,-99.99,FreeWX 2.04,2013-01-18 12:25:00,
2013-01-18 05:30:00,6.8,-99.9,25.39,North,-999,0.0,2.7,-999,0.00,,,-99.99,FreeWX 2.04,2013-01-18 12:30:00,
2013-01-18 05:35:00,4.5,-99.9,25.39,North,-999,0.0,3.1,-999,0.00,,,-99.99,FreeWX 2.04,2013-01-18 12:35:00,
2013-01-18 05:41:00,3.2,-99.9,25.39,North,-999,0.0,2.7,-999,0.00,,,-99.99,FreeWX 2.04,2013-01-18 12:41:00,
2013-01-18 05:46:00,3.2,-99.9,25.42,North,-999,0.0,0.0,-999,0.00,,,-99.99,FreeWX 2.04,2013-01-18 12:46:00,
2013-01-18 05:51:00,3.0,-99.9,25.42,North,-999,0.0,0.0,-999,0.00,,,-99.99,FreeWX 2.04,2013-01-18 12:51:00,
2013-01-18 05:56:00,3.2,-99.9,25.42,North,-999,0.0,0.0,-999,0.00,,,-99.99,FreeWX 2.04,2013-01-18 12:56:00,
2013-01-18 06:01:00,3.7,-99.9,25.42,West,269,1.0,4.5,-999,0.00,,,-99.99,FreeWX 2.04,2013-01-18 13:01:00,
2013-01-18 06:06:00,2.8,-99.9,25.42,WSW,250,2.0,3.6,-999,0.00,,,-99.99,FreeWX 2.04,2013-01-18 13:06:00,
2013-01-18 06:11:00,1.6,-99.9,25.42,WSW,237,1.0,3.6,-999,0.00,,,-99.99,FreeWX 2.04,2013-01-18 13:11:00,
2013-01-18 06:16:00,1.2,-99.9,25.42,North,-999,0.0,0.0,-999,0.00,,,-99.99,FreeWX 2.04,2013-01-18 13:16:00,
2013-01-18 06:21:00,1.6,-99.9,25.42,North,-999,0.0,0.0,-999,0.00,,,-99.99,FreeWX 2.04,2013-01-18 13:21:00,
2013-01-18 06:26:00,1.8,-99.9,25.42,North,-999,0.0,0.0,-999,0.00,,,-99.99,FreeWX 2.04,2013-01-18 13:26:00,
2013-01-18 06:31:00,1.6,-99.9,25.42,North,-999,0.0,0.0,-999,0.00,,,-99.99,FreeWX 2.04,2013-01-18 13:31:00,
2013-01-18 06:36:00,2.1,-99.9,25.42,North,-999,0.0,2.7,-999,0.00,,,-99.99,FreeWX 2.04,2013-01-18 13:36:00,
2013-01-18 06:41:00,1.9,-99.9,25.42,North,-999,0.0,0.0,-999,0.00,,,-99.99,FreeWX 2.04,2013-01-18 13:41:00,
2013-01-18 06:46:00,2.7,-99.9,25.39,North,-999,0.0,2.7,-999,0.00,,,-99.99,FreeWX 2.04,2013-01-18 13:46:00,
2013-01-18 06:51:00,1.6,-99.9,25.39,North,-999,0.0,4.0,-999,0.00,,,-99.99,FreeWX 2.04,2013-01-18 13:51:00,
2013-01-18 06:56:00,0.5,-99.9,25.39,North,-999,0.0,2.7,-999,0.00,,,-99.99,FreeWX 2.04,2013-01-18 13:56:00,
2013-01-18 07:01:00,0.9,-99.9,25.42,North,-999,0.0,2.7,-999,0.00,,,-99.99,FreeWX 2.04,2013-01-18 14:01:00,
2013-01-18 07:16:00,0.5,-99.9,25.42,North,-999,0.0,2.7,-999,0.00,,,-99.99,FreeWX 2.04,2013-01-18 14:16:00,
2013-01-18 07:21:00,0.7,-99.9,25.42,North,-999,0.0,0.0,-999,0.00,,,-99.99,FreeWX 2.04,2013-01-18 14:21:00,
2013-01-18 07:26:00,0.7,-99.9,25.42,North,-999,0.0,0.0,-999,0.00,,,-99.99,FreeWX 2.04,2013-01-18 14:26:00,
2013-01-18 07:31:00,1.4,-99.9,25.42,North,-999,0.0,0.0,-999,0.00,,,-99.99,FreeWX 2.04,2013-01-18 14:31:00,
2013-01-18 07:36:00,1.0,-99.9,25.42,North,-999,0.0,0.0,-999,0.00,,,-99.99,FreeWX 2.04,2013-01-18 14:36:00,
2013-01-18 07:41:00,1.6,-99.9,25.42,North,-999,0.0,0.0,-999,0.00,,,-99.99,FreeWX 2.04,2013-01-18 14:41:00,
2013-01-18 07:46:00,2.1,-99.9,25.42,North,-999,0.0,0.0,-999,0.00,,,-99.99,FreeWX 2.04,2013-01-18 14:46:00,
2013-01-18 07:51:00,2.3,-99.9,25.42,North,-999,0.0,0.0,-999,0.00,,,-99.99,FreeWX 2.04,2013-01-18 14:51:00,
2013-01-18 07:56:00,1.9,-99.9,25.42,North,-999,0.0,0.0,-999,0.00,,,-99.99,FreeWX 2.04,2013-01-18 14:56:00,
2013-01-18 08:01:00,1.6,-99.9,25.42,North,-999,0.0,0.0,-999,0.00,,,-99.99,FreeWX 2.04,2013-01-18 15:01:00,
2013-01-18 08:06:00,2.8,-99.9,25.42,North,-999,0.0,0.0,-999,0.00,,,-99.99,FreeWX 2.04,2013-01-18 15:06:00,
2013-01-18 08:47:00,21.2,-99.9,25.42,North,-999,0.0,0.0,-999,0.00,,,-99.99,FreeWX 2.04,2013-01-18 15:47:00,
2013-01-18 08:57:00,21.2,-99.9,25.42,North,-999,0.0,2.7,-999,0.00,,,-99.99,FreeWX 2.04,2013-01-18 15:57:00,
2013-01-18 09:02:00,21.2,-99.9,25.42,North,-999,0.0,2.7,-999,0.00,,,-99.99,FreeWX 2.04,2013-01-18 16:02:00,
2013-01-18 09:17:00,21.2,-99.9,25.45,North,-999,0.0,2.7,-999,0.00,,,-99.99,FreeWX 2.04,2013-01-18 16:17:00,
2013-01-18 09:37:00,21.2,-99.9,25.45,South,176,1.0,4.0,-999,0.00,,,-99.99,FreeWX 2.04,2013-01-18 16:37:00,
2013-01-18 10:02:00,21.2,-99.9,25.45,South,176,1.0,3.6,-999,0.00,,,-99.99,FreeWX 2.04,2013-01-18 17:02:00,
2013-01-18 10:07:00,21.2,-99.9,25.45,South,182,2.0,4.9,-999,0.00,,,-99.99,FreeWX 2.04,2013-01-18 17:07:00,
2013-01-18 10:17:00,21.2,-99.9,25.45,SW,235,2.0,3.6,-999,0.00,,,-99.99,FreeWX 2.04,2013-01-18 17:17:00,
2013-01-18 10:27:00,16.0,-99.9,25.45,North,-999,0.0,3.6,-999,0.00,,,-99.99,FreeWX 2.04,2013-01-18 17:27:00,
2013-01-18 10:32:00,15.3,-99.9,25.45,SW,235,2.0,4.5,-999,0.00,,,-99.99,FreeWX 2.04,2013-01-18 17:32:00,
2013-01-18 10:37:00,15.3,-99.9,25.45,SW,235,2.0,4.9,-999,0.00,,,-99.99,FreeWX 2.04,2013-01-18 17:37:00,
2013-01-18 10:47:00,14.5,-99.9,25.45,WSW,247,4.0,5.4,-999,0.00,,,-99.99,FreeWX 2.04,2013-01-18 17:47:00,
2013-01-18 11:17:00,16.3,-99.9,25.42,West,269,3.0,4.5,-999,0.00,,,-99.99,FreeWX 2.04,2013-01-18 18:17:00,
2013-01-18 11:32:00,18.1,4.3,25.42,West,269,1.0,3.1,54,0.00,,,-99.99,FreeWX 2.04,2013-01-18 18:32:00,
2013-01-18 11:37:00,18.7,4.1,25.42,West,269,1.0,3.1,52,0.00,,,-99.99,FreeWX 2.04,2013-01-18 18:37:00,
2013-01-18 11:42:00,20.1,5.7,25.42,West,269,1.0,3.1,53,0.00,,,-99.99,FreeWX 2.04,2013-01-18 18:42:00,
2013-01-18 11:47:00,19.6,3.6,25.42,West,269,2.0,4.9,49,0.00,,,-99.99,FreeWX 2.04,2013-01-18 18:47:00,
2013-01-18 11:52:00,19.0,2.7,25.42,West,269,4.0,6.3,48,0.00,,,-99.99,FreeWX 2.04,2013-01-18 18:52:00,
2013-01-18 11:57:00,19.0,2.7,25.42,West,269,4.0,5.8,48,0.00,,,-99.99,FreeWX 2.04,2013-01-18 18:57:00,
2013-01-18 12:02:00,19.6,3.2,25.39,West,269,4.0,5.8,48,0.00,,,-99.99,FreeWX 2.04,2013-01-18 19:02:00,
2013-01-18 12:07:00,18.5,3.0,25.39,West,269,4.0,6.7,50,0.00,,,-99.99,FreeWX 2.04,2013-01-18 19:07:00,
2013-01-18 12:12:00,19.2,4.1,25.39,West,269,5.0,6.7,51,0.00,,,-99.99,FreeWX 2.04,2013-01-18 19:12:00,
2013-01-18 12:17:00,20.1,4.5,25.39,West,269,3.0,4.5,50,0.00,,,-99.99,FreeWX 2.04,2013-01-18 19:17:00,
2013-01-18 12:22:00,21.0,4.5,25.39,West,269,2.0,4.0,48,0.00,,,-99.99,FreeWX 2.04,2013-01-18 19:22:00,
2013-01-18 12:27:00,21.7,5.2,25.39,West,269,2.0,3.6,48,0.00,,,-99.99,FreeWX 2.04,2013-01-18 19:27:00,
2013-01-18 12:32:00,22.1,4.5,25.39,West,269,1.0,3.6,46,0.00,,,-99.99,FreeWX 2.04,2013-01-18 19:32:00,
2013-01-18 12:37:00,22.3,4.3,25.39,West,269,1.0,4.0,45,0.00,,,-99.99,FreeWX 2.04,2013-01-18 19:37:00,
2013-01-18 12:42:00,23.0,4.8,25.39,West,269,1.0,3.6,45,0.00,,,-99.99,FreeWX 2.04,2013-01-18 19:42:00,
2013-01-18 12:47:00,23.4,5.2,25.37,West,269,2.0,3.6,45,0.00,,,-99.99,FreeWX 2.04,2013-01-18 19:47:00,
2013-01-18 12:52:00,22.1,4.5,25.37,West,269,3.0,6.7,46,0.00,,,-99.99,FreeWX 2.04,2013-01-18 19:52:00,
2013-01-18 12:57:00,21.4,4.3,25.37,West,268,5.0,7.8,47,0.00,,,-99.99,FreeWX 2.04,2013-01-18 19:57:00,
2013-01-18 13:02:00,21.2,4.6,25.37,West,267,6.0,7.4,48,0.00,,,-99.99,FreeWX 2.04,2013-01-18 20:02:00,
2013-01-18 13:07:00,21.6,5.0,25.37,West,266,5.0,6.3,48,0.00,,,-99.99,FreeWX 2.04,2013-01-18 20:07:00,
2013-01-18 13:12:00,21.6,5.0,25.37,West,266,5.0,6.7,48,0.00,,,-99.99,FreeWX 2.04,2013-01-18 20:12:00,
2013-01-18 13:17:00,21.6,5.0,25.37,West,266,6.0,7.8,48,0.00,,,-99.99,FreeWX 2.04,2013-01-18 20:17:00,
2013-01-18 13:22:00,21.4,5.2,25.37,West,263,6.0,8.3,49,0.00,,,-99.99,FreeWX 2.04,2013-01-18 20:22:00,
2013-01-18 13:27:00,21.4,4.8,25.37,WSW,258,6.0,8.3,48,0.00,,,-99.99,FreeWX 2.04,2013-01-18 20:27:00,
2013-01-18 13:32:00,21.4,4.8,25.37,WSW,255,6.0,7.8,48,0.00,,,-99.99,FreeWX 2.04,2013-01-18 20:32:00,
2013-01-18 13:37:00,21.6,5.4,25.37,WSW,254,6.0,6.9,49,0.00,,,-99.99,FreeWX 2.04,2013-01-18 20:37:00,
2013-01-18 13:42:00,22.5,5.7,25.37,WSW,255,5.0,6.3,48,0.00,,,-99.99,FreeWX 2.04,2013-01-18 20:42:00,
2013-01-18 13:47:00,22.8,5.2,25.37,WSW,254,4.0,5.8,46,0.00,,,-99.99,FreeWX 2.04,2013-01-18 20:47:00,
2013-01-18 13:52:00,23.0,4.8,25.37,WSW,253,4.0,7.4,45,0.00,,,-99.99,FreeWX 2.04,2013-01-18 20:52:00,
2013-01-18 13:57:00,22.1,4.5,25.37,WSW,253,5.0,8.3,46,0.00,,,-99.99,FreeWX 2.04,2013-01-18 20:57:00,
2013-01-18 14:02:00,22.1,5.0,25.37,WSW,254,6.0,8.3,47,0.00,,,-99.99,FreeWX 2.04,2013-01-18 21:02:00,
2013-01-18 14:07:00,22.1,5.0,25.37,WSW,254,6.0,8.7,47,0.00,,,-99.99,FreeWX 2.04,2013-01-18 21:07:00,
2013-01-18 14:12:00,22.6,5.5,25.37,WSW,254,6.0,6.7,47,0.00,,,-99.99,FreeWX 2.04,2013-01-18 21:12:00,
2013-01-18 14:17:00,23.0,5.7,25.37,WSW,250,5.0,6.9,47,0.00,,,-99.99,FreeWX 2.04,2013-01-18 21:17:00,
2013-01-18 14:22:00,23.4,5.7,25.37,SW,232,5.0,6.7,46,0.00,,,-99.99,FreeWX 2.04,2013-01-18 21:22:00,
2013-01-18 14:28:00,23.2,5.0,25.37,SSW,201,5.0,6.3,45,0.00,,,-99.99,FreeWX 2.04,2013-01-18 21:28:00,
2013-01-18 14:33:00,23.2,5.0,25.37,South,182,5.0,7.4,45,0.00,,,-99.99,FreeWX 2.04,2013-01-18 21:33:00,
2013-01-18 14:38:00,23.5,5.4,25.37,South,179,5.0,7.4,45,0.00,,,-99.99,FreeWX 2.04,2013-01-18 21:38:00,
2013-01-18 14:43:00,23.5,5.4,25.37,South,180,5.0,7.8,45,0.00,,,-99.99,FreeWX 2.04,2013-01-18 21:43:00,
2013-01-18 14:48:00,23.5,5.4,25.37,South,184,5.0,7.8,45,0.00,,,-99.99,FreeWX 2.04,2013-01-18 21:48:00,
2013-01-18 14:53:00,23.2,5.0,25.37,South,187,6.0,7.8,45,0.00,,,-99.99,FreeWX 2.04,2013-01-18 21:53:00,
2013-01-18 14:58:00,23.2,5.0,25.37,South,189,6.0,7.8,45,0.00,,,-99.99,FreeWX 2.04,2013-01-18 21:58:00,
2013-01-18 15:03:00,23.2,5.0,25.34,SSW,193,6.0,7.4,45,0.00,,,-99.99,FreeWX 2.04,2013-01-18 22:03:00,
2013-01-18 15:08:00,23.4,5.2,25.34,SSW,201,6.0,7.8,45,0.00,,,-99.99,FreeWX 2.04,2013-01-18 22:08:00,
2013-01-18 15:13:00,23.4,5.7,25.34,SSW,196,5.0,7.8,46,0.00,,,-99.99,FreeWX 2.04,2013-01-18 22:13:00,
2013-01-18 15:18:00,23.2,5.5,25.34,South,183,6.0,7.4,46,0.00,,,-99.99,FreeWX 2.04,2013-01-18 22:18:00,
2013-01-18 15:23:00,23.0,5.4,25.34,South,175,6.0,6.9,46,0.00,,,-99.99,FreeWX 2.04,2013-01-18 22:23:00,
2013-01-18 15:28:00,23.4,5.7,25.34,South,170,5.0,6.9,46,0.00,,,-99.99,FreeWX 2.04,2013-01-18 22:28:00,
2013-01-18 15:33:00,23.4,5.7,25.34,SSE,164,5.0,7.4,46,0.00,,,-99.99,FreeWX 2.04,2013-01-18 22:33:00,
2013-01-18 15:38:00,23.2,5.0,25.34,South,171,5.0,6.3,45,0.00,,,-99.99,FreeWX 2.04,2013-01-18 22:38:00,
2013-01-18 15:43:00,23.0,4.8,25.34,South,185,5.0,6.9,45,0.00,,,-99.99,FreeWX 2.04,2013-01-18 22:43:00,
2013-01-18 15:48:00,23.0,5.4,25.34,South,185,5.0,6.7,46,0.00,,,-99.99,FreeWX 2.04,2013-01-18 22:48:00,
2013-01-18 15:53:00,22.8,5.2,25.34,SSW,194,5.0,6.9,46,0.00,,,-99.99,FreeWX 2.04,2013-01-18 22:53:00,
2013-01-18 15:58:00,22.6,5.0,25.34,SW,231,4.0,6.3,46,0.00,,,-99.99,FreeWX 2.04,2013-01-18 22:58:00,
2013-01-18 16:03:00,22.8,5.2,25.34,WSW,249,4.0,6.7,46,0.00,,,-99.99,FreeWX 2.04,2013-01-18 23:03:00,
2013-01-18 16:08:00,22.8,5.2,25.34,WSW,249,3.0,5.4,46,0.00,,,-99.99,FreeWX 2.04,2013-01-18 23:08:00,
2013-01-18 16:13:00,22.5,5.4,25.34,WSW,243,4.0,6.3,47,0.00,,,-99.99,FreeWX 2.04,2013-01-18 23:13:00,
2013-01-18 16:18:00,22.5,5.4,25.34,SSW,210,5.0,5.8,47,0.00,,,-99.99,FreeWX 2.04,2013-01-18 23:18:00,
2013-01-18 16:23:00,22.1,4.5,25.34,South,181,5.0,6.7,46,0.00,,,-99.99,FreeWX 2.04,2013-01-18 23:23:00,
2013-01-18 16:28:00,21.6,4.5,25.34,South,176,4.0,5.8,47,0.00,,,-99.99,FreeWX 2.04,2013-01-18 23:28:00,
2013-01-18 16:33:00,21.2,4.6,25.34,South,178,4.0,6.3,48,0.00,,,-99.99,FreeWX 2.04,2013-01-18 23:33:00,
2013-01-18 16:38:00,20.5,4.5,25.34,South,179,4.0,5.4,49,0.00,,,-99.99,FreeWX 2.04,2013-01-18 23:38:00,
2013-01-18 16:43:00,20.1,4.5,25.34,South,177,4.0,5.4,50,0.00,,,-99.99,FreeWX 2.04,2013-01-18 23:43:00,
2013-01-18 16:48:00,19.6,4.8,25.34,South,175,4.0,5.8,52,0.00,,,-99.99,FreeWX 2.04,2013-01-18 23:48:00,
2013-01-18 16:53:00,19.8,5.4,25.34,South,175,3.0,4.9,53,0.00,,,-99.99,FreeWX 2.04,2013-01-18 23:53:00,
2013-01-18 16:58:00,19.6,5.2,25.34,South,175,2.0,3.6,53,0.00,,,-99.99,FreeWX 2.04,2013-01-18 23:58:00,
2013-01-18 17:03:00,19.2,5.0,25.34,South,174,1.0,3.1,53,0.00,,,-99.99,FreeWX 2.04,2013-01-19 00:03:00,
2013-01-18 17:08:00,18.7,4.5,25.34,North,-999,0.0,2.7,53,0.00,,,-99.99,FreeWX 2.04,2013-01-19 00:08:00,
2013-01-18 17:13:00,18.3,4.5,25.34,North,-999,0.0,0.0,54,0.00,,,-99.99,FreeWX 2.04,2013-01-19 00:13:00,
2013-01-18 17:18:00,18.1,4.3,25.34,South,174,1.0,4.5,54,0.00,,,-99.99,FreeWX 2.04,2013-01-19 00:18:00,
2013-01-18 17:23:00,18.0,4.6,25.34,South,174,3.0,4.5,55,0.00,,,-99.99,FreeWX 2.04,2013-01-19 00:23:00,
2013-01-18 17:28:00,18.0,5.0,25.34,South,175,2.0,4.5,56,0.00,,,-99.99,FreeWX 2.04,2013-01-19 00:28:00,
2013-01-18 17:33:00,17.6,4.3,25.37,North,-999,0.0,0.0,55,0.00,,,-99.99,FreeWX 2.04,2013-01-19 00:33:00,
2013-01-18 17:38:00,17.6,4.6,25.37,North,-999,0.0,0.0,56,0.00,,,-99.99,FreeWX 2.04,2013-01-19 00:38:00,
2013-01-18 17:43:00,17.4,4.5,25.37,North,-999,0.0,3.1,56,0.00,,,-99.99,FreeWX 2.04,2013-01-19 00:43:00,
2013-01-18 17:48:00,16.9,3.9,25.37,South,175,1.0,3.6,56,0.00,,,-99.99,FreeWX 2.04,2013-01-19 00:48:00,
2013-01-18 17:53:00,16.5,3.9,25.37,South,175,1.0,2.7,57,0.00,,,-99.99,FreeWX 2.04,2013-01-19 00:53:00,
2013-01-18 17:58:00,16.3,3.7,25.37,North,-999,0.0,0.0,57,0.00,,,-99.99,FreeWX 2.04,2013-01-19 00:58:00,
2013-01-18 18:03:00,16.2,3.6,25.37,North,-999,0.0,3.1,57,0.00,,,-99.99,FreeWX 2.04,2013-01-19 01:03:00,
2013-01-18 18:08:00,16.0,3.9,25.37,South,175,1.0,3.6,58,0.00,,,-99.99,FreeWX 2.04,2013-01-19 01:08:00,
2013-01-18 18:13:00,15.6,3.6,25.37,South,175,1.0,2.7,58,0.00,,,-99.99,FreeWX 2.04,2013-01-19 01:13:00,
2013-01-18 18:18:00,15.4,3.7,25.37,North,-999,0.0,0.0,59,0.00,,,-99.99,FreeWX 2.04,2013-01-19 01:18:00,
2013-01-18 18:23:00,15.3,3.9,25.37,North,-999,0.0,0.0,60,0.00,,,-99.99,FreeWX 2.04,2013-01-19 01:23:00,
2013-01-18 18:28:00,14.7,3.4,25.37,North,-999,0.0,0.0,60,0.00,,,-99.99,FreeWX 2.04,2013-01-19 01:28:00,
2013-01-18 18:33:00,14.5,3.6,25.37,North,-999,0.0,0.0,61,0.00,,,-99.99,FreeWX 2.04,2013-01-19 01:33:00,
2013-01-18 18:38:00,14.5,3.9,25.37,North,-999,0.0,4.0,62,0.00,,,-99.99,FreeWX 2.04,2013-01-19 01:38:00,
2013-01-18 18:43:00,14.2,3.6,25.37,North,-999,0.0,0.0,62,0.00,,,-99.99,FreeWX 2.04,2013-01-19 01:43:00,
2013-01-18 18:48:00,14.0,3.4,25.37,North,-999,0.0,0.0,62,0.00,,,-99.99,FreeWX 2.04,2013-01-19 01:48:00,
2013-01-18 18:53:00,13.5,-99.9,25.37,North,-999,0.0,0.0,-999,0.00,,,-99.99,FreeWX 2.04,2013-01-19 01:53:00,
2013-01-18 18:58:00,13.1,-99.9,25.37,North,-999,0.0,0.0,-999,0.00,,,-99.99,FreeWX 2.04,2013-01-19 01:58:00,
2013-01-18 19:03:00,13.5,-99.9,25.37,North,-999,0.0,0.0,-999,0.00,,,-99.99,FreeWX 2.04,2013-01-19 02:03:00,
2013-01-18 19:08:00,13.6,-99.9,25.37,North,-999,0.0,0.0,-999,0.00,,,-99.99,FreeWX 2.04,2013-01-19 02:08:00,
2013-01-18 19:13:00,13.3,-99.9,25.37,North,-999,0.0,0.0,-999,0.00,,,-99.99,FreeWX 2.04,2013-01-19 02:13:00,
2013-01-18 19:18:00,12.9,-99.9,25.37,North,-999,0.0,0.0,-999,0.00,,,-99.99,FreeWX 2.04,2013-01-19 02:18:00,
2013-01-18 19:24:00,12.6,-99.9,25.37,North,-999,0.0,0.0,-999,0.00,,,-99.99,FreeWX 2.04,2013-01-19 02:24:00,
2013-01-18 19:29:00,12.2,-99.9,25.37,North,-999,0.0,0.0,-999,0.00,,,-99.99,FreeWX 2.04,2013-01-19 02:29:00,
2013-01-18 19:34:00,12.4,-99.9,25.37,North,-999,0.0,0.0,-999,0.00,,,-99.99,FreeWX 2.04,2013-01-19 02:34:00,
2013-01-18 19:39:00,13.5,-99.9,25.37,North,-999,0.0,4.5,-999,0.00,,,-99.99,FreeWX 2.04,2013-01-19 02:39:00,
2013-01-18 19:44:00,13.5,-99.9,25.37,South,175,2.0,4.0,-999,0.00,,,-99.99,FreeWX 2.04,2013-01-19 02:44:00,
2013-01-18 19:49:00,13.3,-99.9,25.37,South,175,3.0,4.5,-999,0.00,,,-99.99,FreeWX 2.04,2013-01-19 02:49:00,
2013-01-18 19:54:00,13.1,-99.9,25.37,South,174,3.0,4.5,-999,0.00,,,-99.99,FreeWX 2.04,2013-01-19 02:54:00,
2013-01-18 19:59:00,12.7,-99.9,25.37,South,174,2.0,4.0,-999,0.00,,,-99.99,FreeWX 2.04,2013-01-19 02:59:00,
2013-01-18 20:04:00,12.9,-99.9,25.37,North,-999,0.0,0.0,-999,0.00,,,-99.99,FreeWX 2.04,2013-01-19 03:04:00,
2013-01-18 20:09:00,13.3,-99.9,25.37,North,-999,0.0,0.0,-999,0.00,,,-99.99,FreeWX 2.04,2013-01-19 03:09:00,
2013-01-18 20:14:00,12.7,-99.9,25.37,North,-999,0.0,0.0,-999,0.00,,,-99.99,FreeWX 2.04,2013-01-19 03:14:00,
2013-01-18 20:19:00,12.4,-99.9,25.37,North,-999,0.0,0.0,-999,0.00,,,-99.99,FreeWX 2.04,2013-01-19 03:19:00,
2013-01-18 20:24:00,11.7,-99.9,25.37,North,-999,0.0,0.0,-999,0.00,,,-99.99,FreeWX 2.04,2013-01-19 03:24:00,
2013-01-18 20:29:00,11.1,-99.9,25.37,North,-999,0.0,0.0,-999,0.00,,,-99.99,FreeWX 2.04,2013-01-19 03:29:00,
2013-01-18 20:34:00,10.8,-99.9,25.37,North,-999,0.0,0.0,-999,0.00,,,-99.99,FreeWX 2.04,2013-01-19 03:34:00,
2013-01-18 20:39:00,10.4,-99.9,25.37,North,-999,0.0,0.0,-999,0.00,,,-99.99,FreeWX 2.04,2013-01-19 03:39:00,
2013-01-18 20:44:00,11.1,-99.9,25.37,North,-999,0.0,0.0,-999,0.00,,,-99.99,FreeWX 2.04,2013-01-19 03:44:00,
2013-01-18 20:49:00,11.1,-99.9,25.37,North,-999,0.0,0.0,-999,0.00,,,-99.99,FreeWX 2.04,2013-01-19 03:49:00,
2013-01-18 20:54:00,13.1,-99.9,25.37,North,-999,0.0,0.0,-999,0.00,,,-99.99,FreeWX 2.04,2013-01-19 03:54:00,
2013-01-18 20:59:00,12.9,-99.9,25.37,North,-999,0.0,0.0,-999,0.00,,,-99.99,FreeWX 2.04,2013-01-19 03:59:00,
2013-01-18 21:04:00,11.8,-99.9,25.37,North,-999,0.0,0.0,-999,0.00,,,-99.99,FreeWX 2.04,2013-01-19 04:04:00,
2013-01-18 21:09:00,11.7,-99.9,25.37,North,-999,0.0,0.0,-999,0.00,,,-99.99,FreeWX 2.04,2013-01-19 04:09:00,
2013-01-18 21:14:00,12.4,-99.9,25.37,North,-999,0.0,3.6,-999,0.00,,,-99.99,FreeWX 2.04,2013-01-19 04:14:00,
2013-01-18 21:19:00,12.6,-99.9,25.37,North,-999,0.0,4.0,-999,0.00,,,-99.99,FreeWX 2.04,2013-01-19 04:19:00,
2013-01-18 21:24:00,12.0,-99.9,25.37,North,-999,0.0,0.0,-999,0.00,,,-99.99,FreeWX 2.04,2013-01-19 04:24:00,
2013-01-18 21:29:00,10.9,-99.9,25.37,North,-999,0.0,0.0,-999,0.00,,,-99.99,FreeWX 2.04,2013-01-19 04:29:00,
2013-01-18 21:34:00,11.1,-99.9,25.37,North,-999,0.0,0.0,-999,0.00,,,-99.99,FreeWX 2.04,2013-01-19 04:34:00,
2013-01-18 21:39:00,11.7,-99.9,25.37,North,-999,0.0,0.0,-999,0.00,,,-99.99,FreeWX 2.04,2013-01-19 04:39:00,
2013-01-18 21:44:00,13.3,-99.9,25.37,North,-999,0.0,2.7,-999,0.00,,,-99.99,FreeWX 2.04,2013-01-19 04:44:00,
2013-01-18 21:49:00,12.7,-99.9,25.37,North,-999,0.0,3.6,-999,0.00,,,-99.99,FreeWX 2.04,2013-01-19 04:49:00,
2013-01-18 21:54:00,11.7,-99.9,25.37,North,-999,0.0,4.5,-999,0.00,,,-99.99,FreeWX 2.04,2013-01-19 04:54:00,
2013-01-18 21:59:00,11.7,-99.9,25.37,SW,230,1.0,3.6,-999,0.00,,,-99.99,FreeWX 2.04,2013-01-19 04:59:00,
2013-01-18 22:04:00,12.6,-99.9,25.37,NNW,338,1.0,5.4,-999,0.00,,,-99.99,FreeWX 2.04,2013-01-19 05:04:00,
2013-01-18 22:09:00,12.6,-99.9,25.37,North,10,2.0,5.4,-999,0.00,,,-99.99,FreeWX 2.04,2013-01-19 05:09:00,
2013-01-18 22:14:00,14.0,-99.9,25.37,NNE,19,1.0,4.0,-999,0.00,,,-99.99,FreeWX 2.04,2013-01-19 05:14:00,
2013-01-18 22:19:00,14.7,6.4,25.37,North,-999,0.0,5.4,69,0.00,,,-99.99,FreeWX 2.04,2013-01-19 05:19:00,
2013-01-18 22:24:00,12.9,-99.9,25.37,North,-999,0.0,0.0,-999,0.00,,,-99.99,FreeWX 2.04,2013-01-19 05:24:00,
2013-01-18 22:29:00,10.9,-99.9,25.37,North,-999,0.0,0.0,-999,0.00,,,-99.99,FreeWX 2.04,2013-01-19 05:29:00,
2013-01-18 22:34:00,10.8,-99.9,25.37,North,-999,0.0,0.0,-999,0.00,,,-99.99,FreeWX 2.04,2013-01-19 05:34:00,
2013-01-18 22:39:00,10.8,-99.9,25.37,North,-999,0.0,0.0,-999,0.00,,,-99.99,FreeWX 2.04,2013-01-19 05:39:00,
2013-01-18 22:44:00,10.2,-99.9,25.37,North,-999,0.0,0.0,-999,0.00,,,-99.99,FreeWX 2.04,2013-01-19 05:44:00,
2013-01-18 22:49:00,9.5,-99.9,25.37,North,-999,0.0,0.0,-999,0.00,,,-99.99,FreeWX 2.04,2013-01-19 05:49:00,
2013-01-18 22:55:00,9.3,-99.9,25.37,North,-999,0.0,0.0,-999,0.00,,,-99.99,FreeWX 2.04,2013-01-19 05:55:00,
2013-01-18 23:00:00,8.8,-99.9,25.37,North,-999,0.0,0.0,-999,0.00,,,-99.99,FreeWX 2.04,2013-01-19 06:00:00,
2013-01-18 23:05:00,9.3,-99.9,25.39,North,-999,0.0,0.0,-999,0.00,,,-99.99,FreeWX 2.04,2013-01-19 06:05:00,
2013-01-18 23:11:00,9.3,-99.9,25.39,North,-999,0.0,0.0,-999,0.00,,,-99.99,FreeWX 2.04,2013-01-19 06:11:00,
2013-01-18 23:16:00,10.2,-99.9,25.39,North,-999,0.0,0.0,-999,0.00,,,-99.99,FreeWX 2.04,2013-01-19 06:16:00,
2013-01-18 23:21:00,10.8,-99.9,25.39,North,-999,0.0,0.0,-999,0.00,,,-99.99,FreeWX 2.04,2013-01-19 06:21:00,
2013-01-18 23:27:00,9.0,-99.9,25.39,North,-999,0.0,3.1,-999,0.00,,,-99.99,FreeWX 2.04,2013-01-19 06:27:00,
2013-01-18 23:32:00,8.8,-99.9,25.37,North,-999,0.0,3.1,-999,0.00,,,-99.99,FreeWX 2.04,2013-01-19 06:32:00,
2013-01-18 23:37:00,10.0,-99.9,25.37,North,-999,0.0,2.7,-999,0.00,,,-99.99,FreeWX 2.04,2013-01-19 06:37:00,
2013-01-18 23:42:00,10.0,-99.9,25.37,North,-999,0.0,0.0,-999,0.00,,,-99.99,FreeWX 2.04,2013-01-19 06:42:00,
2013-01-18 23:47:00,10.8,-99.9,25.37,North,-999,0.0,0.0,-999,0.00,,,-99.99,FreeWX 2.04,2013-01-19 06:47:00,
2013-01-18 23:52:00,10.6,-99.9,25.37,North,-999,0.0,0.0,-999,0.00,,,-99.99,FreeWX 2.04,2013-01-19 06:52:00,
2013-01-18 23:57:00,10.8,-99.9,25.37,North,-999,0.0,0.0,-999,0.00,,,-99.99,FreeWX 2.04,2013-01-19 06:57:00,